Time;durP1;ratioP1;P1;durP2;ratioP2;P2;SDS_P1;SDS_P2;PMS_P1;PMS_P2;Temp;Humidity;BMP_temperature;BMP_pressure;BME280_temperature;BME280_humidity;BME280_pressure;Samples;Min_cycle;Max_cycle;Signal;HPM_P1;HPM_P2
2024/04/11 00:00:29;;;;;;;2.70;2.00;;;;;;;12.73;100.00;100435.98;105936;1256;73991;-55
2024/04/11 00:02:56;;;;;;;3.40;2.10;;;;;;;12.68;100.00;100438.39;105967;1253;60403;-55
2024/04/11 00:05:24;;;;;;;4.80;2.10;;;;;;;12.62;100.00;100438.45;106004;1256;60888;-54
2024/04/11 00:07:51;;;;;;;3.20;2.00;;;;;;;12.58;100.00;100439.01;105913;1253;72737;-54
2024/04/11 00:10:18;;;;;;;7.20;2.40;;;;;;;12.54;100.00;100441.35;106190;1261;67504;-53
2024/04/11 00:12:46;;;;;;;5.10;3.00;;;;;;;12.50;100.00;100441.69;106020;1255;72565;-54
2024/04/11 00:15:13;;;;;;;5.40;3.00;;;;;;;12.46;100.00;100444.59;105870;1258;60845;-54
2024/04/11 00:17:40;;;;;;;3.50;2.50;;;;;;;12.40;100.00;100446.33;106064;1260;60430;-54
2024/04/11 00:20:08;;;;;;;7.20;2.90;;;;;;;12.36;100.00;100445.04;105987;1256;74142;-53
2024/04/11 00:22:35;;;;;;;4.60;3.00;;;;;;;12.33;100.00;100446.63;107398;1254;67658;-53
2024/04/11 00:25:01;;;;;;;2.70;1.80;;;;;;;12.31;100.00;100446.73;106172;1255;73363;-54
2024/04/11 00:27:29;;;;;;;3.60;2.70;;;;;;;12.29;100.00;100448.61;105929;1261;61472;-54
2024/04/11 00:29:56;;;;;;;6.50;2.90;;;;;;;12.27;100.00;100448.52;105968;1261;59392;-55
2024/04/11 00:32:23;;;;;;;5.30;2.50;;;;;;;12.25;100.00;100447.52;105969;1254;72662;-54
2024/04/11 00:34:50;;;;;;;5.70;2.00;;;;;;;12.25;100.00;100447.85;105998;1258;66434;-56
2024/04/11 00:37:16;;;;;;;5.30;1.70;;;;;;;12.25;100.00;100454.38;105944;1260;72538;-54
2024/04/11 00:39:43;;;;;;;3.00;1.50;;;;;;;12.25;100.00;100453.11;105933;1258;60537;-54
2024/04/11 00:42:12;;;;;;;2.50;1.60;;;;;;;12.25;100.00;100453.10;105954;1258;60561;-54
2024/04/11 00:44:39;;;;;;;2.00;1.80;;;;;;;12.26;100.00;100455.38;109090;1255;73188;-55
2024/04/11 00:47:09;;;;;;;4.50;1.80;;;;;;;12.26;100.00;100455.02;109152;1254;65973;-54
2024/04/11 00:49:37;;;;;;;2.70;1.70;;;;;;;12.27;100.00;100457.31;108888;1254;71461;-54
2024/04/11 00:52:04;;;;;;;4.60;2.40;;;;;;;12.30;100.00;100456.85;108900;1256;60112;-54
2024/04/11 00:54:30;;;;;;;3.50;1.90;;;;;;;12.32;100.00;100456.40;109018;1256;60194;-54
2024/04/11 00:57:00;;;;;;;3.70;2.30;;;;;;;12.34;100.00;100455.94;108861;1256;73347;-54
2024/04/11 00:59:27;;;;;;;3.80;1.30;;;;;;;12.35;100.00;100459.85;109120;1256;66499;-55
2024/04/11 01:01:54;;;;;;;2.30;1.10;;;;;;;12.34;100.00;100459.17;108979;1255;71239;-54
2024/04/11 01:04:21;;;;;;;3.30;1.60;;;;;;;12.33;100.00;100464.83;109006;1256;59215;-54
2024/04/11 01:07:07;;;;;;;2.90;1.60;;;;;;;12.32;100.00;100469.91;108927;1255;59182;-56
2024/04/11 01:09:37;;;;;;;5.90;1.50;;;;;;;12.30;100.00;100471.05;108998;1256;76189;-54
2024/04/11 01:12:04;;;;;;;3.10;1.30;;;;;;;12.25;100.00;100472.88;107361;1258;66855;-54
2024/04/11 01:14:32;;;;;;;2.80;1.50;;;;;;;12.19;100.00;100472.80;109028;1253;72984;-57
2024/04/11 01:16:59;;;;;;;1.90;1.10;;;;;;;12.15;100.00;100471.35;109147;1255;59459;-57
2024/04/11 01:19:25;;;;;;;2.20;1.10;;;;;;;12.14;100.00;100469.42;108027;1260;60004;-58
2024/04/11 01:21:53;;;;;;;5.50;1.10;;;;;;;12.14;100.00;100470.69;107137;1255;74820;-58
2024/04/11 01:24:19;;;;;;;2.90;1.40;;;;;;;12.12;100.00;100468.22;106851;1256;65743;-58
2024/04/11 01:26:47;;;;;;;6.50;2.30;;;;;;;12.10;100.00;100466.14;105976;1258;71392;-58
2024/04/11 01:29:14;;;;;;;4.00;1.30;;;;;;;12.09;100.00;100464.92;106041;1257;61210;-57
2024/04/11 01:31:43;;;;;;;5.90;1.00;;;;;;;12.08;100.00;100463.87;106349;1258;60851;-57
2024/04/11 01:34:10;;;;;;;5.60;1.30;;;;;;;12.09;100.00;100460.79;106295;1258;73395;-58
2024/04/11 01:36:37;;;;;;;2.10;1.20;;;;;;;12.09;100.00;100460.26;105964;1261;67097;-57
2024/04/11 01:39:04;;;;;;;2.70;1.00;;;;;;;12.09;100.00;100458.98;106354;1256;72865;-56
2024/04/11 01:41:32;;;;;;;5.30;1.00;;;;;;;12.07;100.00;100457.15;106205;1256;61484;-56
2024/04/11 01:43:59;;;;;;;2.90;1.10;;;;;;;12.06;100.00;100457.36;106107;1256;59939;-57
2024/04/11 01:46:26;;;;;;;1.40;0.90;;;;;;;12.07;100.00;100460.20;105931;1256;74036;-58
2024/04/11 01:48:53;;;;;;;4.80;1.00;;;;;;;12.08;100.00;100464.09;106368;1253;66720;-58
2024/04/11 01:51:20;;;;;;;3.50;1.10;;;;;;;12.07;100.00;100464.52;106122;1257;71728;-57
2024/04/11 01:53:47;;;;;;;5.60;1.20;;;;;;;12.02;100.00;100468.66;105950;1254;61282;-57
2024/04/11 01:56:14;;;;;;;10.10;1.50;;;;;;;11.97;100.00;100469.95;105996;1253;61262;-57
2024/04/11 01:58:41;;;;;;;2.50;1.50;;;;;;;11.91;100.00;100470.03;106093;1258;74507;-57
2024/04/11 02:01:13;;;;;;;3.10;1.10;;;;;;;11.88;100.00;100470.55;106479;1259;66288;-57
2024/04/11 02:03:40;;;;;;;5.80;1.40;;;;;;;11.85;100.00;100473.54;107373;1258;72684;-58
2024/04/11 02:06:07;;;;;;;2.90;1.30;;;;;;;11.83;100.00;100473.06;105912;1254;61456;-59
2024/04/11 02:08:35;;;;;;;5.80;1.30;;;;;;;11.82;100.00;100473.11;106727;1255;62002;-58
2024/04/11 02:11:04;;;;;;;3.30;1.40;;;;;;;11.81;100.00;100479.14;106196;1258;74655;-57
2024/04/11 02:13:31;;;;;;;2.30;1.60;;;;;;;11.79;100.00;100480.27;106117;1262;66393;-57
2024/04/11 02:15:59;;;;;;;2.10;1.20;;;;;;;11.78;100.00;100478.89;105842;1261;72832;-57
2024/04/11 02:18:29;;;;;;;2.20;1.20;;;;;;;11.75;100.00;100480.77;106181;1258;62328;-57
2024/04/11 02:20:56;;;;;;;1.70;0.90;;;;;;;11.75;100.00;100481.48;106012;1259;61261;-58
2024/04/11 02:23:24;;;;;;;4.10;1.00;;;;;;;11.71;100.00;100483.60;105990;1256;75082;-58
2024/04/11 02:25:51;;;;;;;8.10;1.40;;;;;;;11.72;100.00;100483.03;106110;1261;66957;-57
2024/04/11 02:28:21;;;;;;;1.80;1.00;;;;;;;11.74;100.00;100483.67;106429;1255;72552;-58
2024/04/11 02:30:48;;;;;;;1.90;1.00;;;;;;;11.77;100.00;100488.44;105954;1274;61383;-59
2024/04/11 02:33:14;;;;;;;2.90;0.90;;;;;;;11.79;100.00;100488.90;105927;1254;61233;-57
2024/04/11 02:35:42;;;;;;;1.40;1.10;;;;;;;11.82;100.00;100487.69;105902;1258;74869;-56
2024/04/11 02:38:10;;;;;;;4.30;1.50;;;;;;;11.84;100.00;100489.41;105934;1256;67513;-58
2024/04/11 02:40:37;;;;;;;5.60;0.90;;;;;;;11.84;100.00;100483.48;106450;1256;72839;-58
2024/04/11 02:43:04;;;;;;;3.10;0.90;;;;;;;11.84;100.00;100482.21;105955;1256;60908;-57
2024/04/11 02:45:31;;;;;;;1.60;0.80;;;;;;;11.84;100.00;100487.60;106086;1259;61189;-57
2024/04/11 02:47:58;;;;;;;4.20;0.90;;;;;;;11.82;100.00;100491.28;105924;1264;74068;-57
2024/04/11 02:50:25;;;;;;;1.60;0.80;;;;;;;11.78;100.00;100488.95;105980;1258;67084;-58
2024/04/11 02:52:52;;;;;;;1.20;0.80;;;;;;;11.76;100.00;100492.25;105955;1254;72535;-58
2024/04/11 02:55:19;;;;;;;5.40;0.90;;;;;;;11.72;100.00;100493.09;105973;1261;62081;-57
2024/04/11 02:57:46;;;;;;;4.40;1.00;;;;;;;11.66;100.00;100492.98;105961;1257;61169;-57
2024/04/11 03:00:16;;;;;;;4.90;0.90;;;;;;;11.60;100.00;100495.75;106102;1256;75030;-57
2024/04/11 03:02:43;;;;;;;2.10;0.80;;;;;;;11.55;100.00;100504.63;106170;1254;66996;-58
2024/04/11 03:05:12;;;;;;;1.90;1.30;;;;;;;11.49;100.00;100506.42;105920;1256;74895;-58
2024/04/11 03:07:39;;;;;;;2.10;0.90;;;;;;;11.47;100.00;100513.02;106133;1268;62244;-58
2024/04/11 03:10:07;;;;;;;3.20;0.80;;;;;;;11.46;100.00;100514.84;106013;1258;60907;-58
2024/04/11 03:12:34;;;;;;;2.30;0.80;;;;;;;11.46;100.00;100516.46;106249;1254;75041;-58
2024/04/11 03:15:08;;;;;;;1.30;0.80;;;;;;;11.46;100.00;100520.25;107177;1258;67105;-58
2024/04/11 03:17:36;;;;;;;1.70;0.80;;;;;;;11.45;100.00;100517.96;106853;1255;73129;-57
2024/04/11 03:20:04;;;;;;;2.70;0.90;;;;;;;11.46;100.00;100517.55;106233;1256;61290;-59
2024/04/11 03:22:31;;;;;;;3.20;0.90;;;;;;;11.50;100.00;100514.16;106747;1258;61341;-59
2024/04/11 03:24:58;;;;;;;3.00;1.00;;;;;;;11.53;100.00;100513.30;106137;1256;74592;-59
2024/04/11 03:27:26;;;;;;;3.60;1.00;;;;;;;11.59;100.00;100513.61;106097;1255;67018;-59
2024/04/11 03:29:53;;;;;;;4.20;1.00;;;;;;;11.63;100.00;100519.91;106549;1256;73164;-58
2024/04/11 03:32:20;;;;;;;5.60;0.90;;;;;;;11.66;100.00;100523.95;106157;1261;61225;-58
2024/04/11 03:34:48;;;;;;;4.30;0.90;;;;;;;11.67;100.00;100526.58;107009;1256;61317;-57
2024/04/11 03:37:15;;;;;;;4.40;1.00;;;;;;;11.70;100.00;100527.89;106006;1260;75097;-58
2024/04/11 03:39:43;;;;;;;1.40;1.00;;;;;;;11.72;100.00;100528.17;106003;1257;66838;-58
2024/04/11 03:42:10;;;;;;;4.50;1.30;;;;;;;11.75;100.00;100531.11;106378;1258;73507;-58
2024/04/11 03:44:39;;;;;;;1.90;1.00;;;;;;;11.79;100.00;100536.91;109102;1259;59338;-58
2024/04/11 03:47:08;;;;;;;3.10;0.80;;;;;;;11.83;100.00;100543.04;106409;1257;61269;-58
2024/04/11 03:49:35;;;;;;;3.10;1.00;;;;;;;11.87;100.00;100545.02;109091;1256;74894;-58
2024/04/11 03:52:05;;;;;;;4.10;1.40;;;;;;;11.92;100.00;100548.94;109133;1258;67019;-58
2024/04/11 03:54:33;;;;;;;3.40;1.50;;;;;;;12.00;100.00;100551.48;109080;1254;73371;-58
2024/04/11 03:56:59;;;;;;;3.40;1.20;;;;;;;12.10;100.00;100551.45;109040;1254;59155;-56
2024/04/11 03:59:28;;;;;;;3.20;1.30;;;;;;;12.20;100.00;100560.02;109014;1256;59142;-58
2024/04/11 04:01:54;;;;;;;3.90;1.70;;;;;;;12.31;100.00;100560.30;109148;1253;73400;-57
2024/04/11 04:04:22;;;;;;;5.80;1.60;;;;;;;12.42;100.00;100560.69;109060;1256;66261;-58
2024/04/11 04:06:48;;;;;;;5.20;1.50;;;;;;;12.55;100.00;100560.48;108974;1256;70227;-57
2024/04/11 04:09:15;;;;;;;6.30;1.10;;;;;;;12.69;100.00;100564.01;109019;1256;61957;-58
2024/04/11 04:11:42;;;;;;;3.50;1.70;;;;;;;12.86;100.00;100565.58;109059;1253;61754;-58
2024/04/11 04:14:09;;;;;;;2.60;1.40;;;;;;;13.07;100.00;100564.63;108996;1256;74584;-58
2024/04/11 04:16:39;;;;;;;3.70;1.80;;;;;;;13.35;100.00;100566.07;107420;1254;67042;-57
2024/04/11 04:19:07;;;;;;;4.50;1.90;;;;;;;13.71;100.00;100566.14;105917;1261;72900;-59
2024/04/11 04:21:35;;;;;;;5.70;2.40;;;;;;;14.08;100.00;100569.03;109043;1253;60093;-56
2024/04/11 04:24:05;;;;;;;4.60;2.20;;;;;;;14.44;100.00;100571.55;109062;1256;59076;-55
2024/04/11 04:26:33;;;;;;;3.30;1.80;;;;;;;14.81;100.00;100571.23;108302;1256;73535;-58
2024/04/11 04:29:00;;;;;;;5.00;1.90;;;;;;;15.15;100.00;100567.63;106251;1257;67183;-56
2024/04/11 04:31:28;;;;;;;5.00;2.40;;;;;;;15.45;100.00;100572.98;105973;1259;72600;-57
2024/04/11 04:33:56;;;;;;;4.20;2.00;;;;;;;15.75;100.00;100569.70;106688;1256;61197;-58
2024/04/11 04:36:25;;;;;;;4.00;2.10;;;;;;;16.01;100.00;100570.94;105990;1258;61645;-58
2024/04/11 04:38:54;;;;;;;8.80;2.50;;;;;;;16.20;100.00;100577.59;108363;1256;75434;-58
2024/04/11 04:41:24;;;;;;;4.10;2.20;;;;;;;16.31;100.00;100580.42;106019;1258;65576;-56
2024/04/11 04:43:53;;;;;;;2.60;2.10;;;;;;;16.41;100.00;100588.52;106100;1257;72188;-56
2024/04/11 04:46:24;;;;;;;4.70;1.70;;;;;;;16.49;100.00;100597.48;106608;1256;62166;-57
2024/04/11 04:48:53;;;;;;;5.10;2.90;;;;;;;16.45;100.00;100602.20;106193;1259;61194;-56
2024/04/11 04:51:21;;;;;;;7.10;2.10;;;;;;;16.36;100.00;100601.30;106779;1258;74270;-57
2024/04/11 04:53:54;;;;;;;8.60;2.70;;;;;;;16.25;100.00;100601.94;106190;1261;66755;-57
2024/04/11 04:56:22;;;;;;;4.10;1.50;;;;;;;16.14;100.00;100603.13;106000;1254;72463;-56
2024/04/11 04:58:52;;;;;;;4.70;3.20;;;;;;;16.04;100.00;100606.98;105957;1274;61256;-57
2024/04/11 05:01:23;;;;;;;6.30;2.00;;;;;;;15.95;100.00;100610.02;106315;1257;61339;-56
2024/04/11 05:03:51;;;;;;;4.10;2.50;;;;;;;15.87;100.00;100611.58;106057;1258;75014;-55
2024/04/11 05:06:18;;;;;;;3.70;2.00;;;;;;;15.78;100.00;100612.05;106037;1255;66827;-58
2024/04/11 05:08:53;;;;;;;5.10;1.90;;;;;;;15.71;100.00;100612.48;106205;1258;74261;-58
2024/04/11 05:11:21;;;;;;;5.20;2.50;;;;;;;15.67;100.00;100614.65;106179;1260;61296;-57
2024/04/11 05:13:49;;;;;;;8.80;3.10;;;;;;;15.65;100.00;100616.08;106131;1261;62185;-57
2024/04/11 05:16:19;;;;;;;6.10;2.90;;;;;;;15.62;100.00;100611.73;106029;1260;74353;-57
2024/04/11 05:18:49;;;;;;;3.50;3.00;;;;;;;15.60;100.00;100619.41;106210;1258;65777;-57
2024/04/11 05:21:20;;;;;;;6.50;3.10;;;;;;;15.58;100.00;100620.09;106334;1259;71599;-59
2024/04/11 05:23:47;;;;;;;4.90;2.50;;;;;;;15.55;100.00;100620.44;105841;1261;61473;-58
2024/04/11 05:26:22;;;;;;;7.60;3.50;;;;;;;15.53;100.00;100620.67;105913;1274;61309;-55
2024/04/11 05:28:51;;;;;;;7.00;4.00;;;;;;;15.53;100.00;100621.77;106171;1256;74018;-56
2024/04/11 05:31:25;;;;;;;5.40;3.40;;;;;;;15.50;100.00;100620.80;106388;1256;67045;-59
2024/04/11 05:33:55;;;;;;;5.90;3.40;;;;;;;15.47;100.00;100623.89;106005;1262;70250;-58
2024/04/11 05:36:28;;;;;;;3.80;2.40;;;;;;;15.45;100.00;100624.91;106024;1258;61366;-57
2024/04/11 05:38:56;;;;;;;6.70;2.70;;;;;;;15.48;100.00;100627.48;105976;1261;60282;-58
2024/04/11 05:41:25;;;;;;;5.70;3.50;;;;;;;15.50;100.00;100631.11;106040;1258;73547;-56
2024/04/11 05:43:52;;;;;;;7.80;3.60;;;;;;;15.51;100.00;100633.60;106110;1257;65491;-57
2024/04/11 05:46:19;;;;;;;3.60;3.30;;;;;;;15.53;100.00;100638.77;106114;1259;73054;-57
2024/04/11 05:48:47;;;;;;;5.20;2.40;;;;;;;15.58;100.00;100634.02;106271;1256;61173;-56
2024/04/11 05:51:14;;;;;;;4.20;3.90;;;;;;;15.62;100.00;100633.95;106468;1262;61247;-57
2024/04/11 05:53:41;;;;;;;5.10;3.20;;;;;;;15.64;100.00;100638.19;106500;1259;74769;-58
2024/04/11 05:56:12;;;;;;;4.00;3.70;;;;;;;15.66;100.00;100637.90;106405;1260;67804;-57
2024/04/11 05:58:40;;;;;;;6.50;2.90;;;;;;;15.70;100.00;100642.02;105917;1268;72314;-58
2024/04/11 06:01:09;;;;;;;3.80;2.40;;;;;;;15.76;100.00;100648.40;106077;1257;61310;-57
2024/04/11 06:03:46;;;;;;;2.80;2.60;;;;;;;15.83;100.00;100651.06;106262;1257;61437;-59
2024/04/11 06:06:13;;;;;;;5.70;3.40;;;;;;;15.89;100.00;100652.70;106003;1256;74577;-57
2024/04/11 06:08:41;;;;;;;4.80;3.20;;;;;;;15.93;100.00;100655.77;106251;1260;67157;-57
2024/04/11 06:11:10;;;;;;;6.30;2.90;;;;;;;15.97;100.00;100655.53;107412;1258;72992;-59
2024/04/11 06:13:38;;;;;;;3.30;2.60;;;;;;;16.04;100.00;100653.34;107372;1258;61120;-57
2024/04/11 06:16:05;;;;;;;4.90;2.00;;;;;;;16.11;100.00;100654.92;106042;1258;61257;-56
2024/04/11 06:18:34;;;;;;;2.80;2.60;;;;;;;16.16;100.00;100656.96;106192;1258;73554;-58
2024/04/11 06:21:04;;;;;;;5.10;3.40;;;;;;;16.19;100.00;100657.52;106327;1257;66961;-59
2024/04/11 06:23:32;;;;;;;4.30;3.20;;;;;;;16.20;100.00;100663.05;106007;1260;73133;-57
2024/04/11 06:25:59;;;;;;;4.70;2.80;;;;;;;16.21;100.00;100667.34;106434;1255;62973;-57
2024/04/11 06:28:26;;;;;;;3.50;3.20;;;;;;;16.25;100.00;100664.42;105934;1269;61380;-57
2024/04/11 06:30:54;;;;;;;3.80;1.80;;;;;;;16.31;100.00;100667.88;105975;1259;75453;-58
2024/04/11 06:33:22;;;;;;;3.20;2.80;;;;;;;16.38;100.00;100671.45;105935;1260;69108;-59
2024/04/11 06:35:51;;;;;;;2.70;1.90;;;;;;;16.46;100.00;100672.80;106057;1259;72112;-58
2024/04/11 06:38:23;;;;;;;2.90;2.70;;;;;;;16.54;100.00;100677.03;105991;1258;61132;-57
2024/04/11 06:40:52;;;;;;;8.10;4.00;;;;;;;16.65;100.00;100682.61;108865;1254;60162;-58
2024/04/11 06:43:20;;;;;;;3.10;2.80;;;;;;;16.73;100.00;100684.48;107190;1258;73269;-59
2024/04/11 06:45:50;;;;;;;4.80;3.10;;;;;;;16.76;100.00;100685.03;106927;1259;66941;-56
2024/04/11 06:48:19;;;;;;;4.20;3.80;;;;;;;16.79;100.00;100686.65;105952;1255;71661;-56
2024/04/11 06:50:47;;;;;;;4.20;2.20;;;;;;;16.82;100.00;100687.40;106055;1254;61198;-57
2024/04/11 06:53:17;;;;;;;5.10;2.40;;;;;;;16.85;100.00;100685.36;109134;1254;60391;-58
2024/04/11 06:55:46;;;;;;;4.50;2.40;;;;;;;16.95;100.00;100689.17;109061;1254;73878;-57
2024/04/11 06:58:17;;;;;;;3.80;3.30;;;;;;;17.07;100.00;100689.31;106691;1260;66839;-57
2024/04/11 07:00:46;;;;;;;4.60;2.70;;;;;;;17.17;100.00;100691.40;106877;1260;72588;-57
2024/04/11 07:03:16;;;;;;;3.20;2.30;;;;;;;17.25;100.00;100695.84;106112;1256;61413;-58
2024/04/11 07:05:57;;;;;;;3.80;3.50;;;;;;;17.34;100.00;100694.18;109056;1253;59027;-56
2024/04/11 07:08:31;;;;;;;3.10;2.80;;;;;;;17.45;100.00;100700.05;108961;1254;77375;-55
2024/04/11 07:11:23;;;;;;;2.50;2.30;;;;;;;17.54;100.00;100704.92;109039;1260;67761;-57
2024/04/11 07:13:56;;;;;;;7.80;2.90;;;;;;;17.64;100.00;100700.86;108945;1253;72714;-57
2024/04/11 07:16:32;;;;;;;3.60;3.10;;;;;;;17.70;100.00;100708.14;109052;1253;59555;-56
2024/04/11 07:18:59;;;;;;;8.20;3.10;;;;;;;17.68;100.00;100709.73;108971;1253;60045;-55
2024/04/11 07:21:30;;;;;;;5.20;2.50;;;;;;;17.68;100.00;100706.63;109062;1257;75607;-56
2024/04/11 07:24:03;;;;;;;4.50;2.40;;;;;;;17.71;100.00;100701.31;109062;1254;64913;-55
2024/04/11 07:26:31;;;;;;;4.00;2.60;;;;;;;17.75;100.00;100709.27;109078;1257;72331;-57
2024/04/11 07:29:01;;;;;;;2.30;2.20;;;;;;;17.80;100.00;100704.08;108998;1254;61920;-57
2024/04/11 07:31:28;;;;;;;3.10;2.10;;;;;;;17.85;100.00;100704.65;108975;1254;59953;-56
2024/04/11 07:33:55;;;;;;;4.90;2.50;;;;;;;17.95;100.00;100707.46;107234;1254;74965;-59
2024/04/11 07:36:25;;;;;;;3.80;2.40;;;;;;;18.06;100.00;100709.80;107078;1254;66883;-56
2024/04/11 07:38:53;;;;;;;4.70;2.60;;;;;;;18.15;100.00;100714.89;106301;1258;72684;-58
2024/04/11 07:41:20;;;;;;;3.40;2.60;;;;;;;18.21;100.00;100716.67;108859;1257;60028;-58
2024/04/11 07:43:51;;;;;;;2.70;2.00;;;;;;;18.28;100.00;100714.98;106199;1255;59971;-56
2024/04/11 07:46:18;;;;;;;3.10;2.00;;;;;;;18.33;100.00;100718.27;106435;1260;74716;-58
2024/04/11 07:48:51;;;;;;;6.40;2.20;;;;;;;18.38;100.00;100717.02;106075;1254;65355;-57
2024/04/11 07:51:19;;;;;;;7.60;2.60;;;;;;;18.45;100.00;100721.09;106225;1257;71246;-58
2024/04/11 07:53:46;;;;;;;2.60;1.80;;;;;;;18.51;100.00;100721.41;106001;1257;62329;-54
2024/04/11 07:56:19;;;;;;;5.10;2.10;;;;;;;18.54;100.00;100720.67;106622;1260;60899;-56
2024/04/11 07:58:55;;;;;;;4.50;2.10;;;;;;;18.58;100.00;100729.20;105973;1261;73340;-54
2024/04/11 08:01:30;;;;;;;3.00;1.90;;;;;;;18.63;100.00;100726.64;105933;1260;66221;-56
2024/04/11 08:04:02;;;;;;;4.10;1.80;;;;;;;18.71;100.00;100726.34;105940;1255;73264;-54
2024/04/11 08:06:31;;;;;;;4.90;1.50;;;;;;;18.77;100.00;100729.34;106207;1259;61317;-57
2024/04/11 08:08:58;;;;;;;3.60;2.00;;;;;;;18.84;100.00;100729.78;106137;1261;61250;-58
2024/04/11 08:11:29;;;;;;;1.90;1.60;;;;;;;18.91;100.00;100730.05;106084;1260;74560;-58
2024/04/11 08:13:57;;;;;;;4.10;1.80;;;;;;;18.99;100.00;100729.35;106513;1260;66734;-54
2024/04/11 08:16:25;;;;;;;6.80;1.70;;;;;;;19.04;100.00;100722.45;106051;1254;72990;-55
2024/04/11 08:18:52;;;;;;;4.70;1.90;;;;;;;19.11;100.00;100735.61;106130;1260;61402;-55
2024/04/11 08:21:20;;;;;;;3.40;2.20;;;;;;;19.16;100.00;100735.45;106067;1258;61053;-55
2024/04/11 08:23:47;;;;;;;4.10;1.70;;;;;;;19.17;100.00;100739.73;106463;1258;74134;-56
2024/04/11 08:26:15;;;;;;;1.50;1.40;;;;;;;19.17;100.00;100744.79;105932;1258;67068;-58
2024/04/11 08:28:43;;;;;;;4.50;1.60;;;;;;;19.20;100.00;100741.55;105920;1256;72741;-58
2024/04/11 08:31:11;;;;;;;6.20;1.20;;;;;;;19.21;100.00;100744.15;106198;1273;61344;-54
2024/04/11 08:33:38;;;;;;;2.20;1.60;;;;;;;19.23;100.00;100745.70;105853;1270;61266;-54
2024/04/11 08:36:08;;;;;;;3.60;1.40;;;;;;;19.23;100.00;100749.84;105966;1257;76754;-55
2024/04/11 08:38:40;;;;;;;4.30;1.20;;;;;;;19.24;100.00;100751.75;106353;1261;67137;-54
2024/04/11 08:41:09;;;;;;;2.70;1.20;;;;;;;19.28;100.00;100755.20;105976;1258;72987;-55
2024/04/11 08:43:36;;;;;;;2.20;2.00;;;;;;;19.31;100.00;100756.98;106012;1261;61900;-57
2024/04/11 08:46:08;;;;;;;4.30;1.90;;;;;;;19.31;100.00;100751.89;105884;1254;61222;-55
2024/04/11 08:51:24;;;;;;;3.60;1.70;;;;;;;19.38;100.00;100753.19;102730;1295;599560;-56
2024/04/11 08:53:54;;;;;;;3.70;1.50;;;;;;;19.41;100.00;100750.44;105254;1265;60319;-58
2024/04/11 08:56:31;;;;;;;3.20;1.10;;;;;;;19.44;100.00;100749.68;105332;1269;60681;-56
2024/04/11 08:58:58;;;;;;;6.00;1.10;;;;;;;19.50;100.00;100753.11;105440;1269;73503;-54
2024/04/11 09:01:25;;;;;;;1.60;1.20;;;;;;;19.59;100.00;100750.81;105332;1269;66674;-57
2024/04/11 09:03:52;;;;;;;2.30;1.00;;;;;;;19.72;100.00;100751.22;105220;1279;193483;-55
2024/04/11 09:06:24;;;;;;;2.40;1.10;;;;;;;19.83;100.00;100757.38;105377;1262;61256;-56
2024/04/11 09:08:56;;;;;;;1.40;1.30;;;;;;;19.90;100.00;100752.14;105656;1283;60146;-58
2024/04/11 09:11:27;;;;;;;1.80;1.10;;;;;;;19.99;100.00;100757.64;105700;1268;72957;-53
2024/04/11 09:13:58;;;;;;;1.40;1.30;;;;;;;20.09;100.00;100749.11;105602;1268;66348;-55
2024/04/11 09:16:28;;;;;;;1.80;1.40;;;;;;;20.15;100.00;100748.64;105585;1269;73483;-55
2024/04/11 09:19:10;;;;;;;1.70;1.00;;;;;;;20.23;100.00;100754.49;105537;1269;61246;-55
2024/04/11 09:21:43;;;;;;;2.50;1.00;;;;;;;20.32;100.00;100755.08;105780;1268;60281;-55
2024/04/11 09:24:16;;;;;;;5.70;1.20;;;;;;;20.38;100.00;100750.86;105427;1269;73518;-55
2024/04/11 09:26:46;;;;;;;3.30;1.00;;;;;;;20.44;100.00;100754.65;105705;1267;67392;-56
2024/04/11 09:29:13;;;;;;;3.40;1.20;;;;;;;20.48;100.00;100758.34;105706;1264;71577;-54
2024/04/11 09:31:42;;;;;;;1.60;1.30;;;;;;;20.50;100.00;100761.80;105335;1267;60527;-56
2024/04/11 09:34:13;;;;;;;2.20;1.10;;;;;;;20.55;100.00;100761.64;105472;1267;61424;-55
2024/04/11 09:36:45;;;;;;;1.20;1.00;;;;;;;20.60;100.00;100765.44;105358;1279;74818;-55
2024/04/11 09:39:12;;;;;;;2.10;1.00;;;;;;;20.67;100.00;100762.04;105489;1277;67004;-55
2024/04/11 09:41:40;;;;;;;4.70;0.90;;;;;;;20.74;100.00;100762.18;105574;1264;71736;-58
2024/04/11 09:44:07;;;;;;;2.30;1.20;;;;;;;20.85;100.00;100761.91;105508;1269;60382;-55
2024/04/11 09:46:41;;;;;;;2.00;0.90;;;;;;;20.96;100.00;100765.68;105478;1283;61480;-58
2024/04/11 09:49:11;;;;;;;3.10;1.00;;;;;;;21.01;100.00;100761.28;105644;1268;74896;-56
2024/04/11 09:51:41;;;;;;;2.20;1.10;;;;;;;21.06;100.00;100763.80;105403;1269;65880;-56
2024/04/11 09:54:13;;;;;;;1.40;1.00;;;;;;;21.11;100.00;100769.95;105356;1267;71508;-55
2024/04/11 09:56:42;;;;;;;2.30;0.80;;;;;;;21.13;100.00;100767.81;105446;1269;61471;-55
2024/04/11 09:59:09;;;;;;;2.30;0.80;;;;;;;21.15;100.00;100766.38;105449;1264;60403;-57
2024/04/11 10:01:38;;;;;;;1.60;0.90;;;;;;;21.19;100.00;100770.37;105327;1285;73462;-58
2024/04/11 10:04:21;;;;;;;1.10;0.70;;;;;;;21.21;100.00;100776.75;106980;1267;65673;-56
2024/04/11 10:06:52;;;;;;;3.70;0.90;;;;;;;21.22;100.00;100772.49;105300;1270;73048;-53
2024/04/11 10:09:18;;;;;;;3.20;0.80;;;;;;;21.22;100.00;100776.81;105609;1269;60888;-55
2024/04/11 10:11:51;;;;;;;3.40;0.80;;;;;;;21.26;100.00;100777.42;108326;1263;58714;-56
2024/04/11 10:14:20;;;;;;;2.60;0.60;;;;;;;21.28;100.00;100778.59;108473;1263;74407;-56
2024/04/11 10:16:53;;;;;;;1.50;0.70;;;;;;;21.29;100.00;100775.79;108732;1260;66924;-55
2024/04/11 10:19:26;;;;;;;2.50;0.80;;;;;;;21.34;100.00;100775.02;108682;1260;73343;-57
2024/04/11 10:22:06;;;;;;;1.00;0.60;;;;;;;21.40;100.00;100776.95;108691;1260;59211;-58
2024/04/11 10:24:37;;;;;;;4.30;1.80;;;;;;;21.41;100.00;100773.39;107975;1260;59239;-58
2024/04/11 10:27:10;;;;;;;3.60;0.70;;;;;;;21.41;100.00;100777.17;108707;1260;74778;-59
2024/04/11 10:29:43;;;;;;;3.10;0.70;;;;;;;21.40;100.00;100774.53;107462;1263;67134;-53
2024/04/11 10:32:14;;;;;;;0.90;0.60;;;;;;;21.38;100.00;100780.86;105863;1264;72671;-58
2024/04/11 10:34:47;;;;;;;3.40;0.70;;;;;;;21.41;100.00;100786.33;108662;1260;60026;-55
2024/04/11 10:37:23;;;;;;;3.40;0.80;;;;;;;21.44;100.00;100778.79;108670;1260;58837;-57
2024/04/11 10:39:54;;;;;;;1.70;0.60;;;;;;;21.44;100.00;100779.71;105673;1265;72037;-53
2024/04/11 10:45:17;;;;;;;7.70;1.50;;;;;;;21.41;100.00;100780.33;108412;1260;71441;-54
2024/04/11 10:47:44;;;;;;;1.20;0.60;;;;;;;21.39;100.00;100779.92;108669;1260;59262;-55
2024/04/11 10:50:14;;;;;;;2.50;0.70;;;;;;;21.39;100.00;100780.07;108686;1260;58791;-54
2024/04/11 10:52:45;;;;;;;1.90;0.60;;;;;;;21.43;100.00;100775.96;106231;1260;74702;-56
2024/04/11 10:55:23;;;;;;;3.00;0.60;;;;;;;21.47;100.00;100779.43;107172;1260;69093;-56
2024/04/11 10:58:13;;;;;;;2.00;0.70;;;;;;;21.49;100.00;100778.77;105618;1266;71680;-56
2024/04/11 11:06:40;;;;;;;2.30;0.50;;;;;;;21.54;100.00;100782.54;105758;1264;73755;-56
2024/04/11 11:09:14;;;;;;;0.80;0.40;;;;;;;21.57;100.00;100775.77;105781;1261;68051;-57
2024/04/11 11:11:41;;;;;;;;;;;;;;;21.61;100.00;100772.16;107264;1260;71720;-56
2024/04/11 11:14:08;;;;;;;1.70;0.70;;;;;;;21.66;100.00;100777.98;106566;1260;60456;-58
2024/04/11 11:16:37;;;;;;;1.60;0.70;;;;;;;21.70;100.00;100775.11;105913;1260;60581;-55
2024/04/11 11:19:05;;;;;;;0.70;0.50;;;;;;;21.70;100.00;100781.81;106435;1260;74545;-54
2024/04/11 11:21:40;;;;;;;1.00;0.40;;;;;;;21.74;100.00;100780.48;106266;1264;67766;-58
2024/04/11 11:24:06;;;;;;;1.00;0.50;;;;;;;21.77;100.00;100781.15;105601;1266;72279;-57
2024/04/11 11:26:43;;;;;;;2.40;0.60;;;;;;;21.79;100.00;100789.17;106405;1263;61411;-54
2024/04/11 11:29:11;;;;;;;3.10;0.60;;;;;;;21.79;100.00;100787.15;105624;1264;59525;-58